createdAt,value
2023-03-21T00:00:42.017Z,62.60
2023-03-21T00:03:21.050Z,66.50
2023-03-21T00:05:51.314Z,70.50
2023-03-21T00:08:18.247Z,69.10
2023-03-21T00:10:45.080Z,66.20
2023-03-21T00:13:12.684Z,70.80
2023-03-21T00:16:03.439Z,71.00
2023-03-21T00:18:32.076Z,70.50
2023-03-21T00:21:29.381Z,72.10
2023-03-21T00:23:47.070Z,72.90
2023-03-21T00:26:14.862Z,68.50
2023-03-21T00:28:43.085Z,70.10
2023-03-21T00:31:10.248Z,76.10
2023-03-21T00:33:38.543Z,76.80
2023-03-21T00:36:06.947Z,72.00
2023-03-21T00:38:34.483Z,77.10
2023-03-21T00:41:14.938Z,76.80
2023-03-21T00:43:45.984Z,74.20
2023-03-21T00:46:12.542Z,79.20
2023-03-21T00:48:38.970Z,74.00
2023-03-21T00:51:20.830Z,74.70
2023-03-21T00:53:47.249Z,74.90
2023-03-21T00:56:13.632Z,71.90
2023-03-21T00:58:40.185Z,73.30
2023-03-21T01:01:08.659Z,74.60
2023-03-21T01:03:42.224Z,74.70
2023-03-21T01:08:52.240Z,72.20
2023-03-21T01:11:23.567Z,71.40
2023-03-21T01:14:10.967Z,75.40
2023-03-21T01:16:38.223Z,71.00
2023-03-21T01:19:09.372Z,72.40
2023-03-21T01:21:41.739Z,69.90
2023-03-21T01:24:08.969Z,65.60
2023-03-21T01:26:36.861Z,67.40
2023-03-21T01:29:04.871Z,69.10
2023-03-21T01:31:31.349Z,63.50
2023-03-21T01:33:57.854Z,65.10
2023-03-21T01:36:26.507Z,65.20
2023-03-21T01:38:53.399Z,64.70
2023-03-21T01:41:36.708Z,67.20
2023-03-21T01:44:18.944Z,68.10
2023-03-21T01:47:09.244Z,69.70
2023-03-21T01:49:45.207Z,68.60
2023-03-21T01:52:36.349Z,74.30
2023-03-21T01:55:11.058Z,68.70
2023-03-21T01:58:01.992Z,73.70
2023-03-21T02:00:32.314Z,77.80
2023-03-21T02:03:11.594Z,73.00
2023-03-21T02:06:02.924Z,69.80
2023-03-21T02:08:39.296Z,70.30
2023-03-21T02:11:09.449Z,69.00
2023-03-21T02:13:36.202Z,71.30
2023-03-21T02:16:28.491Z,72.00
2023-03-21T02:19:17.544Z,70.50
2023-03-21T02:21:56.106Z,63.60
2023-03-21T02:25:01.253Z,64.30
2023-03-21T02:27:41.822Z,67.30
2023-03-21T02:30:50.856Z,72.90
2023-03-21T02:33:50.249Z,66.70
2023-03-21T02:36:39.732Z,65.60
2023-03-21T02:39:15.325Z,70.40
2023-03-21T02:41:49.989Z,68.40
2023-03-21T02:46:59.728Z,65.70
2023-03-21T02:49:46.619Z,68.20
2023-03-21T02:52:35.657Z,71.00
2023-03-21T02:55:12.917Z,70.40
2023-03-21T02:57:43.924Z,74.90
2023-03-21T03:00:17.699Z,78.60
2023-03-21T03:02:45.512Z,70.00
2023-03-21T03:05:27.154Z,75.40
2023-03-21T03:08:17.522Z,76.10
2023-03-21T03:11:11.952Z,70.20
2023-03-21T03:14:25.395Z,75.00
2023-03-21T03:17:07.289Z,77.10
2023-03-21T03:19:52.635Z,74.80
2023-03-21T03:22:37.327Z,75.40
2023-03-21T03:25:21.337Z,72.50
2023-03-21T03:27:58.127Z,76.50
2023-03-21T03:30:32.339Z,79.00
2023-03-21T03:33:09.884Z,71.90
2023-03-21T03:35:37.191Z,73.90
2023-03-21T03:38:07.251Z,71.70
2023-03-21T03:40:52.309Z,74.40
2023-03-21T03:43:25.924Z,74.70
2023-03-21T03:48:34.962Z,70.30
2023-03-21T03:51:07.611Z,73.00
2023-03-21T03:53:40.418Z,73.90
2023-03-21T03:56:11.181Z,81.00
2023-03-21T03:58:45.345Z,73.80
2023-03-21T04:01:13.367Z,74.90
2023-03-21T04:03:49.726Z,71.90
2023-03-21T04:06:19.146Z,75.30
2023-03-21T04:08:45.546Z,73.70
2023-03-21T04:11:15.600Z,73.80
2023-03-21T04:13:42.206Z,77.50
2023-03-21T04:16:11.028Z,76.60
2023-03-21T04:18:38.621Z,75.70
2023-03-21T04:21:13.168Z,71.20
2023-03-21T04:23:40.956Z,75.80
2023-03-21T04:26:08.123Z,79.20
2023-03-21T04:28:36.445Z,79.80
2023-03-21T04:31:16.016Z,72.10
2023-03-21T04:33:47.306Z,71.00
2023-03-21T04:36:25.786Z,72.00
2023-03-21T04:38:53.051Z,73.70
2023-03-21T04:41:19.700Z,79.00
2023-03-21T04:43:46.822Z,74.60
2023-03-21T04:46:13.313Z,76.90
2023-03-21T04:48:39.936Z,76.00
2023-03-21T04:51:06.418Z,75.40
2023-03-21T04:53:32.851Z,73.40
2023-03-21T04:56:01.182Z,71.70
2023-03-21T04:58:27.620Z,70.60
2023-03-21T05:00:54.136Z,74.60
2023-03-21T05:03:21.653Z,68.90
2023-03-21T05:05:48.962Z,71.80
2023-03-21T05:08:16.100Z,72.30
2023-03-21T05:10:42.808Z,72.10
2023-03-21T05:13:09.243Z,67.90
2023-03-21T05:15:36.225Z,67.70
2023-03-21T05:18:10.775Z,68.10
2023-03-21T05:20:43.274Z,67.30
2023-03-21T05:23:11.136Z,64.60
2023-03-21T05:25:39.108Z,67.00
2023-03-21T05:28:07.661Z,66.00
2023-03-21T05:30:34.673Z,69.30
2023-03-21T05:33:01.121Z,63.10
2023-03-21T05:35:27.847Z,68.40
2023-03-21T05:37:54.521Z,66.30
2023-03-21T05:40:21.425Z,65.90
2023-03-21T05:42:48.761Z,72.90
2023-03-21T05:45:17.879Z,64.10
2023-03-21T05:47:44.572Z,67.20
2023-03-21T05:50:12.781Z,68.00
2023-03-21T05:52:39.781Z,68.70
2023-03-21T05:55:08.918Z,61.40
2023-03-21T05:57:38.632Z,66.40
2023-03-21T06:00:07.752Z,63.40
2023-03-21T06:02:34.786Z,58.30
2023-03-21T06:05:05.703Z,62.20
2023-03-21T06:07:34.090Z,68.20
2023-03-21T06:10:00.903Z,64.80
2023-03-21T06:12:28.039Z,63.30
2023-03-21T06:14:55.384Z,62.40
2023-03-21T06:17:22.154Z,58.20
2023-03-21T06:19:48.812Z,61.70
2023-03-21T06:22:15.616Z,62.50
2023-03-21T06:24:45.085Z,62.10
2023-03-21T06:27:12.167Z,61.70
2023-03-21T06:29:39.564Z,59.70
2023-03-21T06:32:07.078Z,63.20
2023-03-21T06:34:39.500Z,63.40
2023-03-21T06:37:06.106Z,68.60
2023-03-21T06:39:32.872Z,63.50
2023-03-21T06:42:00.604Z,62.00
2023-03-21T06:44:28.015Z,62.30
2023-03-21T06:46:57.733Z,59.50
2023-03-21T06:49:24.372Z,59.30
2023-03-21T06:51:50.920Z,56.80
2023-03-21T06:54:18.297Z,58.60
2023-03-21T06:56:46.099Z,58.40
2023-03-21T06:59:13.222Z,59.30
2023-03-21T07:01:39.818Z,54.30
2023-03-21T07:04:06.277Z,53.90
2023-03-21T07:06:33.075Z,55.00
2023-03-21T07:09:00.064Z,56.20
2023-03-21T07:11:27.088Z,55.40
2023-03-21T07:13:54.232Z,53.30
2023-03-21T07:16:21.051Z,56.80
2023-03-21T07:18:47.812Z,55.10
2023-03-21T07:21:14.751Z,59.30
2023-03-21T07:23:41.377Z,55.40
2023-03-21T07:26:09.783Z,52.00
2023-03-21T07:28:36.368Z,51.70
2023-03-21T07:31:05.946Z,50.50
2023-03-21T07:33:33.438Z,54.90
2023-03-21T07:36:01.470Z,52.70
2023-03-21T07:38:30.547Z,51.10
2023-03-21T07:41:00.184Z,51.70
2023-03-21T07:43:26.576Z,48.80
2023-03-21T07:45:56.974Z,54.20
2023-03-21T07:48:24.079Z,53.10
2023-03-21T07:50:51.660Z,49.70
2023-03-21T07:53:22.934Z,52.70
2023-03-21T07:55:55.956Z,44.50
2023-03-21T07:58:24.077Z,45.30
2023-03-21T08:00:51.242Z,48.50
2023-03-21T08:03:18.646Z,52.60
2023-03-21T08:05:46.056Z,51.70
2023-03-21T08:08:13.201Z,51.30
2023-03-21T08:10:42.593Z,49.40
2023-03-21T08:13:12.138Z,47.90
2023-03-21T08:15:41.396Z,49.40
2023-03-21T08:18:11.453Z,38.20
2023-03-21T08:20:38.322Z,35.70
2023-03-21T08:23:24.175Z,33.00
2023-03-21T08:25:55.197Z,26.80
2023-03-21T08:28:22.630Z,29.40
2023-03-21T08:30:49.300Z,30.00
2023-03-21T08:33:18.055Z,30.20
2023-03-21T08:35:45.701Z,31.20
2023-03-21T08:38:13.214Z,27.50
2023-03-21T08:40:40.689Z,28.70
2023-03-21T08:43:07.202Z,29.50
2023-03-21T08:45:33.682Z,25.10
2023-03-21T08:48:00.627Z,23.10
2023-03-21T08:50:28.975Z,23.60
2023-03-21T08:52:56.063Z,25.40
2023-03-21T08:55:22.563Z,23.60
2023-03-21T08:57:49.079Z,25.00
2023-03-21T09:00:17.555Z,21.90
2023-03-21T09:02:46.247Z,24.40
2023-03-21T09:05:15.998Z,20.00
2023-03-21T09:07:43.873Z,20.50
2023-03-21T09:10:20.712Z,21.70
2023-03-21T09:12:50.301Z,20.20
2023-03-21T09:15:19.515Z,20.60
2023-03-21T09:17:51.908Z,24.00
2023-03-21T09:20:20.603Z,23.70
2023-03-21T09:22:48.966Z,26.00
2023-03-21T09:25:16.092Z,22.30
2023-03-21T09:27:45.442Z,22.10
2023-03-21T09:30:14.881Z,24.40
2023-03-21T09:32:41.580Z,20.90
2023-03-21T09:35:10.804Z,19.80
2023-03-21T09:37:41.497Z,22.00
2023-03-21T09:40:39.554Z,22.00
2023-03-21T09:43:37.554Z,21.80
2023-03-21T09:46:39.982Z,24.40
2023-03-21T09:49:15.108Z,32.40
2023-03-21T09:51:48.188Z,27.00
2023-03-21T09:54:33.290Z,25.40
2023-03-21T09:57:07.083Z,22.40
2023-03-21T09:59:39.533Z,21.60
2023-03-21T10:02:40.129Z,22.90
2023-03-21T10:05:22.951Z,28.00
2023-03-21T10:08:00.520Z,28.00
2023-03-21T10:10:31.846Z,25.30
2023-03-21T10:12:58.929Z,25.80
2023-03-21T10:15:26.838Z,23.10
2023-03-21T10:18:03.195Z,24.80
2023-03-21T10:20:32.727Z,22.10
2023-03-21T10:23:03.106Z,24.10
2023-03-21T10:25:37.463Z,24.40
2023-03-21T10:28:07.079Z,21.50
2023-03-21T10:31:05.277Z,23.50
2023-03-21T10:33:38.790Z,24.20
2023-03-21T10:38:36.999Z,20.40
2023-03-21T10:41:03.579Z,20.50
2023-03-21T10:43:37.235Z,21.40
2023-03-21T10:46:14.222Z,21.50
2023-03-21T10:48:46.611Z,21.00
2023-03-21T10:51:20.199Z,21.40
2023-03-21T10:54:08.927Z,21.50
2023-03-21T10:56:40.277Z,22.70
2023-03-21T10:59:16.117Z,23.70
2023-03-21T11:01:45.925Z,22.90
2023-03-21T11:04:20.022Z,21.80
2023-03-21T11:06:59.258Z,24.60
2023-03-21T11:10:02.214Z,21.20
2023-03-21T11:12:40.228Z,27.00
2023-03-21T11:15:30.130Z,24.20
2023-03-21T11:17:58.927Z,30.80
2023-03-21T11:20:30.627Z,34.70
2023-03-21T11:22:57.171Z,29.30
2023-03-21T11:25:30.904Z,25.90
2023-03-21T11:27:58.934Z,24.70
2023-03-21T11:30:27.855Z,22.00
2023-03-21T11:33:00.500Z,23.50
2023-03-21T11:35:39.135Z,23.50
2023-03-21T11:38:23.375Z,25.30
2023-03-21T11:40:58.704Z,22.10
2023-03-21T11:43:31.910Z,22.90
2023-03-21T11:46:12.418Z,21.90
2023-03-21T11:48:48.373Z,22.20
2023-03-21T11:51:27.639Z,22.80
2023-03-21T11:54:15.539Z,22.80
2023-03-21T11:56:46.990Z,23.20
2023-03-21T11:59:31.477Z,25.30
2023-03-21T12:02:17.092Z,23.80
2023-03-21T12:04:54.862Z,25.70
2023-03-21T12:07:38.503Z,29.30
2023-03-21T12:10:40.377Z,26.60
2023-03-21T12:13:19.691Z,25.20
2023-03-21T12:16:23.696Z,26.60
2023-03-21T12:19:07.272Z,26.10
2023-03-21T12:21:45.374Z,27.60
2023-03-21T12:24:18.696Z,31.30
2023-03-21T12:26:59.149Z,30.00
2023-03-21T12:29:33.305Z,32.20
2023-03-21T12:32:14.874Z,27.80
2023-03-21T12:35:18.607Z,27.50
2023-03-21T12:38:08.617Z,22.70
2023-03-21T12:40:47.099Z,31.60
2023-03-21T12:43:16.237Z,29.10
2023-03-21T12:45:49.239Z,32.90
2023-03-21T12:48:34.894Z,30.30
2023-03-21T12:51:03.323Z,28.60
2023-03-21T12:53:42.576Z,30.50
2023-03-21T12:56:16.733Z,30.20
2023-03-21T12:58:53.975Z,32.30
2023-03-21T13:01:22.497Z,33.50
2023-03-21T13:04:24.430Z,32.70
2023-03-21T13:06:53.607Z,31.00
2023-03-21T13:09:37.346Z,29.70
2023-03-21T13:12:31.218Z,27.60
2023-03-21T13:15:25.731Z,28.60
2023-03-21T13:18:04.442Z,32.40
2023-03-21T13:20:49.067Z,28.30
2023-03-21T13:23:18.576Z,28.60
2023-03-21T13:25:47.982Z,28.30
2023-03-21T13:28:26.621Z,28.10
2023-03-21T13:31:13.770Z,28.40
2023-03-21T13:33:45.177Z,27.20
2023-03-21T13:36:14.829Z,27.20
2023-03-21T13:38:42.492Z,29.90
2023-03-21T13:41:20.368Z,26.50
2023-03-21T13:44:02.375Z,40.60
2023-03-21T13:46:28.915Z,35.60
2023-03-21T13:49:00.501Z,54.50
2023-03-21T13:51:36.868Z,129.50
2023-03-21T13:54:07.079Z,96.10
2023-03-21T13:56:49.731Z,112.60
2023-03-21T13:59:34.305Z,90.50
2023-03-21T14:02:27.295Z,49.70
2023-03-21T14:05:06.088Z,35.60
2023-03-21T14:07:34.420Z,40.60
2023-03-21T14:10:06.395Z,45.50
2023-03-21T14:12:44.491Z,42.40
2023-03-21T14:15:21.127Z,37.20
2023-03-21T14:17:56.188Z,29.80
2023-03-21T14:20:35.816Z,28.30
2023-03-21T14:23:05.895Z,28.20
2023-03-21T14:25:44.387Z,27.20
2023-03-21T14:28:23.824Z,25.10
2023-03-21T14:30:55.537Z,24.40
2023-03-21T14:33:27.046Z,23.30
2023-03-21T14:36:00.283Z,25.00
2023-03-21T14:38:33.112Z,25.30
2023-03-21T14:40:59.841Z,28.30
2023-03-21T14:43:27.525Z,31.00
2023-03-21T14:45:56.420Z,26.40
2023-03-21T14:48:33.724Z,36.90
2023-03-21T14:51:03.506Z,38.80
2023-03-21T14:53:35.265Z,36.70
2023-03-21T14:56:08.329Z,38.40
2023-03-21T14:58:39.719Z,33.90
2023-03-21T15:01:14.472Z,25.20
2023-03-21T15:03:45.072Z,26.60
2023-03-21T15:06:15.385Z,32.00
2023-03-21T15:08:55.214Z,34.60
2023-03-21T15:11:33.862Z,21.70
2023-03-21T15:14:07.184Z,24.40
2023-03-21T15:16:35.441Z,26.70
2023-03-21T15:19:04.571Z,21.60
2023-03-21T15:21:41.016Z,24.60
2023-03-21T15:24:15.693Z,51.90
2023-03-21T15:26:47.203Z,34.30
2023-03-21T15:29:16.136Z,36.70
2023-03-21T15:31:47.656Z,47.20
2023-03-21T15:34:21.421Z,56.70
2023-03-21T15:36:50.240Z,52.30
2023-03-21T15:39:23.145Z,39.40
2023-03-21T15:42:01.691Z,37.20
2023-03-21T15:44:29.289Z,42.90
2023-03-21T15:46:57.419Z,34.80
2023-03-21T15:49:33.282Z,29.80
2023-03-21T15:52:09.073Z,33.80
2023-03-21T15:54:56.189Z,33.50
2023-03-21T15:57:25.076Z,43.80
2023-03-21T15:59:58.352Z,44.40
2023-03-21T16:02:29.482Z,36.70
2023-03-21T16:05:03.551Z,31.60
2023-03-21T16:07:33.662Z,36.70
2023-03-21T16:10:03.979Z,36.30
2023-03-21T16:12:31.897Z,41.10
2023-03-21T16:14:58.401Z,43.40
2023-03-21T16:17:38.836Z,62.50
2023-03-21T16:20:22.158Z,36.70
2023-03-21T16:22:48.725Z,46.20
2023-03-21T16:25:16.163Z,58.20
2023-03-21T16:27:44.480Z,72.20
2023-03-21T16:30:15.754Z,208.50
2023-03-21T16:32:42.230Z,117.20
2023-03-21T16:35:09.158Z,59.60
2023-03-21T16:37:35.651Z,59.40
2023-03-21T16:40:05.299Z,55.10
2023-03-21T16:42:31.846Z,62.10
2023-03-21T16:44:58.292Z,61.80
2023-03-21T16:47:24.892Z,72.60
2023-03-21T16:49:51.343Z,61.90
2023-03-21T16:52:17.821Z,53.90
2023-03-21T16:54:47.789Z,51.60
2023-03-21T16:57:27.176Z,47.10
2023-03-21T16:59:55.348Z,61.40
2023-03-21T17:02:25.552Z,72.00
2023-03-21T17:04:52.705Z,130.70
2023-03-21T17:07:19.714Z,204.10
2023-03-21T17:09:47.424Z,159.90
2023-03-21T17:12:15.664Z,133.60
2023-03-21T17:14:43.372Z,105.30
2023-03-21T17:17:11.967Z,106.30
2023-03-21T17:19:39.264Z,98.70
2023-03-21T17:22:06.338Z,73.20
2023-03-21T17:24:33.588Z,56.70
2023-03-21T17:27:03.032Z,50.80
2023-03-21T17:29:30.388Z,61.80
2023-03-21T17:31:56.812Z,138.30
2023-03-21T17:34:23.377Z,155.60
2023-03-21T17:36:49.856Z,158.10
2023-03-21T17:39:23.650Z,98.30
2023-03-21T17:41:51.431Z,97.80
2023-03-21T17:44:19.411Z,94.80
2023-03-21T17:46:46.607Z,72.70
2023-03-21T17:49:15.264Z,69.10
2023-03-21T17:51:42.637Z,71.90
2023-03-21T17:54:09.765Z,72.70
2023-03-21T17:56:37.306Z,62.30
2023-03-21T17:59:06.605Z,73.30
2023-03-21T18:01:34.772Z,51.60
2023-03-21T18:04:04.198Z,56.70
2023-03-21T18:06:33.385Z,64.60
2023-03-21T18:09:06.163Z,58.10
2023-03-21T18:11:33.533Z,61.40
2023-03-21T18:14:14.330Z,53.10
2023-03-21T18:16:42.459Z,53.40
2023-03-21T18:19:12.147Z,44.00
2023-03-21T18:21:40.082Z,84.40
2023-03-21T18:24:07.144Z,99.80
2023-03-21T18:26:33.656Z,57.20
2023-03-21T18:32:02.565Z,59.90
2023-03-21T18:34:32.307Z,59.80
2023-03-21T18:36:59.091Z,57.50
2023-03-21T18:39:28.727Z,68.70
2023-03-21T18:42:00.174Z,56.60
2023-03-21T18:44:31.080Z,59.10
2023-03-21T18:46:58.633Z,68.10
2023-03-21T18:50:05.965Z,85.00
2023-03-21T18:52:11.770Z,114.80
2023-03-21T18:54:38.962Z,117.80
2023-03-21T18:59:54.997Z,175.90
2023-03-21T19:02:21.887Z,84.50
2023-03-21T19:04:49.046Z,66.70
2023-03-21T19:07:15.904Z,56.10
2023-03-21T19:10:05.294Z,58.90
2023-03-21T19:12:29.652Z,59.60
2023-03-21T19:14:56.327Z,53.10
2023-03-21T19:20:13.329Z,51.50
2023-03-21T19:22:40.703Z,58.80
2023-03-21T19:25:08.608Z,76.60
2023-03-21T19:27:37.363Z,74.80
2023-03-21T19:30:14.411Z,67.40
2023-03-21T19:32:43.259Z,68.60
2023-03-21T19:35:10.757Z,78.50
2023-03-21T19:37:37.786Z,79.20
2023-03-21T19:40:06.273Z,86.30
2023-03-21T19:42:35.515Z,82.80
2023-03-21T19:45:03.543Z,73.90
2023-03-21T19:47:30.150Z,66.20
2023-03-21T19:52:44.229Z,90.00
2023-03-21T19:55:10.653Z,82.80
2023-03-21T19:57:37.076Z,70.00
2023-03-21T20:00:04.913Z,75.00
2023-03-21T20:02:36.587Z,67.70
2023-03-21T20:05:06.036Z,70.60
2023-03-21T20:07:32.480Z,62.10
2023-03-21T20:09:59.150Z,65.60
2023-03-21T20:12:26.852Z,74.00
2023-03-21T20:15:05.622Z,80.60
2023-03-21T20:17:39.420Z,78.20
2023-03-21T20:20:13.349Z,72.70
2023-03-21T20:23:05.681Z,67.90
2023-03-21T20:25:29.458Z,71.20
2023-03-21T20:28:12.830Z,68.80
2023-03-21T20:30:53.403Z,67.30
2023-03-21T20:33:20.235Z,66.70
2023-03-21T20:38:36.102Z,71.70
2023-03-21T20:41:07.183Z,75.40
2023-03-21T20:46:20.951Z,72.80
2023-03-21T20:48:49.007Z,73.80
2023-03-21T20:52:40.466Z,74.90
2023-03-21T20:54:03.815Z,80.40
2023-03-21T20:56:30.399Z,81.60
2023-03-21T20:59:12.117Z,77.30
2023-03-21T21:01:42.561Z,81.90
2023-03-21T21:04:09.581Z,79.40
2023-03-21T21:06:36.025Z,85.80
2023-03-21T21:09:03.477Z,92.70
2023-03-21T21:14:17.080Z,86.00
2023-03-21T21:16:44.928Z,88.10
2023-03-21T21:19:11.853Z,78.40
2023-03-21T21:21:38.882Z,80.40
2023-03-21T21:24:07.594Z,82.50
2023-03-21T21:26:34.700Z,80.80
2023-03-21T21:29:01.312Z,87.30
2023-03-21T21:31:28.312Z,82.00
2023-03-21T21:33:55.420Z,86.80
2023-03-21T21:36:22.075Z,82.50
2023-03-21T21:38:48.960Z,91.70
2023-03-21T21:41:19.642Z,114.40
2023-03-21T21:43:47.643Z,122.20
2023-03-21T21:46:15.466Z,118.50
2023-03-21T21:48:43.218Z,124.40
2023-03-21T21:51:09.843Z,126.30
2023-03-21T21:53:38.215Z,118.20
2023-03-21T21:56:05.899Z,113.40
2023-03-21T21:58:33.193Z,112.70
2023-03-21T22:01:01.135Z,104.90
2023-03-21T22:03:35.787Z,104.00
2023-03-21T22:06:03.857Z,99.60
2023-03-21T22:08:30.443Z,95.30
2023-03-21T22:10:57.165Z,92.50
2023-03-21T22:13:24.076Z,90.80
2023-03-21T22:15:51.117Z,89.50
2023-03-21T22:18:17.529Z,95.90
2023-03-21T22:20:44.325Z,89.40
2023-03-21T22:23:11.087Z,85.30
2023-03-21T22:25:37.843Z,82.60
2023-03-21T22:28:04.819Z,78.60
2023-03-21T22:30:31.697Z,85.30
2023-03-21T22:33:08.949Z,82.60
2023-03-21T22:35:36.723Z,82.80
2023-03-21T22:38:03.209Z,76.40
2023-03-21T22:40:30.270Z,74.40
2023-03-21T22:42:57.308Z,73.50
2023-03-21T22:45:23.711Z,70.20
2023-03-21T22:47:50.197Z,76.50
2023-03-21T22:50:16.782Z,77.40
2023-03-21T22:52:43.304Z,79.70
2023-03-21T22:55:12.133Z,75.10
2023-03-21T22:57:38.709Z,73.30
2023-03-21T23:00:12.781Z,73.40
2023-03-21T23:02:40.742Z,71.90
2023-03-21T23:05:09.124Z,72.10
2023-03-21T23:07:35.701Z,77.50
2023-03-21T23:10:02.460Z,71.60
2023-03-21T23:12:28.881Z,77.10
2023-03-21T23:14:55.376Z,73.80
2023-03-21T23:17:21.789Z,73.00
2023-03-21T23:19:48.152Z,76.90
2023-03-21T23:22:14.605Z,75.10
2023-03-21T23:24:41.023Z,70.50
2023-03-21T23:27:07.419Z,69.90
2023-03-21T23:29:33.820Z,69.30
2023-03-21T23:32:00.330Z,69.40
2023-03-21T23:34:27.377Z,59.50
2023-03-21T23:36:53.815Z,61.30
2023-03-21T23:39:20.280Z,59.30
2023-03-21T23:41:46.724Z,61.90
2023-03-21T23:44:13.309Z,57.60
2023-03-21T23:46:39.682Z,55.20
2023-03-21T23:49:06.121Z,56.50
2023-03-21T23:51:32.535Z,53.20
2023-03-21T23:53:58.975Z,53.50
2023-03-21T23:56:26.394Z,55.30
2023-03-21T23:58:52.951Z,54.00
